Time;durP1;ratioP1;P1;durP2;ratioP2;P2;SDS_P1;SDS_P2;PMS_P1;PMS_P2;Temp;Humidity;BMP_temperature;BMP_pressure;BME280_temperature;BME280_humidity;BME280_pressure;Samples;Min_cycle;Max_cycle;Signal;HPM_P1;HPM_P2
2021/09/10 00:02:14;;;;;;;9.85;8.05;;;21.00;99.90;;;;;;5071852;28;20513;-47
2021/09/10 00:04:40;;;;;;;17.15;9.40;;;21.00;99.90;;;;;;5071394;28;20111;-46
2021/09/10 00:07:05;;;;;;;10.43;9.02;;;20.90;99.90;;;;;;5072186;28;20350;-47
2021/09/10 00:09:31;;;;;;;12.48;9.13;;;20.90;99.90;;;;;;5071715;28;20568;-46
2021/09/10 00:11:56;;;;;;;9.65;8.68;;;20.90;99.90;;;;;;5071448;28;20063;-48
2021/09/10 00:14:22;;;;;;;9.52;8.10;;;20.90;99.90;;;;;;5071742;28;20025;-50
2021/09/10 00:16:48;;;;;;;8.82;7.95;;;20.80;99.90;;;;;;5071622;28;20474;-45
2021/09/10 00:19:13;;;;;;;14.93;9.38;;;20.80;99.90;;;;;;5071536;28;20028;-48
2021/09/10 00:21:39;;;;;;;10.75;8.52;;;20.80;99.90;;;;;;5071056;28;20036;-48
2021/09/10 00:24:05;;;;;;;14.45;8.57;;;20.90;99.90;;;;;;5071858;28;20028;-46
2021/09/10 00:26:30;;;;;;;11.00;8.20;;;20.80;99.90;;;;;;5071297;28;20469;-46
2021/09/10 00:28:56;;;;;;;9.85;7.95;;;20.80;99.90;;;;;;5070988;28;20029;-50
2021/09/10 00:31:22;;;;;;;9.02;7.72;;;20.80;99.90;;;;;;5071230;28;20474;-46
2021/09/10 00:33:47;;;;;;;11.23;8.20;;;20.80;99.90;;;;;;5070983;28;20031;-51
2021/09/10 00:36:13;;;;;;;12.77;8.45;;;20.80;99.90;;;;;;5071329;28;20397;-47
2021/09/10 00:38:38;;;;;;;8.45;7.30;;;20.80;99.90;;;;;;5070967;28;20035;-45
2021/09/10 00:41:04;;;;;;;14.85;10.00;;;20.90;99.90;;;;;;5071035;28;20111;-45
2021/09/10 00:43:29;;;;;;;12.80;8.90;;;20.90;99.70;;;;;;5071287;28;20021;-48
2021/09/10 00:45:57;;;;;;;9.55;7.70;;;20.90;99.60;;;;;;5071052;28;20474;-47
2021/09/10 00:48:23;;;;;;;13.40;8.15;;;20.90;99.60;;;;;;5070894;28;20021;-47
2021/09/10 00:50:49;;;;;;;19.50;7.35;;;20.90;99.60;;;;;;5070800;28;20032;-51
2021/09/10 00:53:16;;;;;;;8.27;7.47;;;20.80;99.50;;;;;;5070877;28;20024;-46
2021/09/10 00:55:43;;;;;;;9.38;7.78;;;20.80;99.20;;;;;;5070840;28;20029;-47
2021/09/10 00:58:09;;;;;;;9.32;7.07;;;20.80;99.20;;;;;;5070747;28;20025;-50
2021/09/10 01:00:34;;;;;;;10.38;7.18;;;20.80;99.30;;;;;;5070563;28;20090;-47
2021/09/10 01:03:00;;;;;;;10.02;7.30;;;20.80;99.30;;;;;;5071046;28;20029;-47
2021/09/10 01:05:26;;;;;;;11.25;7.35;;;20.80;99.20;;;;;;5070597;28;20029;-48
2021/09/10 01:07:53;;;;;;;11.30;7.00;;;20.80;99.20;;;;;;5070386;28;20032;-49
2021/09/10 01:10:19;;;;;;;10.70;6.88;;;20.80;99.20;;;;;;5070610;28;20486;-46
2021/09/10 01:12:46;;;;;;;8.75;7.38;;;20.70;99.30;;;;;;5070860;28;20055;-48
2021/09/10 01:15:11;;;;;;;8.23;7.35;;;20.70;99.20;;;;;;5070054;28;20017;-48
2021/09/10 01:17:37;;;;;;;10.13;7.38;;;20.90;99.10;;;;;;5070363;28;20032;-48
2021/09/10 01:20:05;;;;;;;9.02;7.05;;;20.70;99.10;;;;;;5070511;28;20024;-49
2021/09/10 01:22:31;;;;;;;8.70;7.03;;;20.80;99.20;;;;;;5070341;28;20512;-51
2021/09/10 01:25:11;;;;;;;11.82;7.40;;;20.70;99.20;;;;;;5071788;28;20032;-49
2021/09/10 01:27:49;;;;;;;9.15;7.63;;;20.70;99.00;;;;;;5070361;28;20017;-50
2021/09/10 01:30:18;;;;;;;8.07;7.10;;;20.70;99.10;;;;;;5070850;28;20096;-47
2021/09/10 01:32:44;;;;;;;8.93;6.90;;;20.70;99.20;;;;;;5070384;28;20016;-47
2021/09/10 01:35:11;;;;;;;12.68;7.35;;;20.70;99.20;;;;;;5069762;28;20076;-47
2021/09/10 01:37:36;;;;;;;8.68;7.32;;;20.60;99.30;;;;;;5070042;28;20147;-47
2021/09/10 01:40:03;;;;;;;9.23;7.22;;;20.60;99.20;;;;;;5070210;28;20485;-49
2021/09/10 01:42:29;;;;;;;10.48;6.80;;;20.60;99.20;;;;;;5070058;28;20036;-50
2021/09/10 01:44:54;;;;;;;12.23;7.72;;;20.60;99.40;;;;;;5070220;28;20479;-46
2021/09/10 01:47:20;;;;;;;9.95;7.53;;;20.60;99.40;;;;;;5069867;28;20099;-48
2021/09/10 01:49:45;;;;;;;12.20;7.18;;;20.60;99.40;;;;;;5069924;28;20055;-47
2021/09/10 01:52:11;;;;;;;7.88;7.07;;;20.60;99.40;;;;;;5070105;28;20747;-48
2021/09/10 01:54:36;;;;;;;12.93;7.53;;;20.50;99.60;;;;;;5070110;28;20150;-46
2021/09/10 01:57:03;;;;;;;8.05;7.25;;;20.50;99.60;;;;;;5070303;28;20033;-46
2021/09/10 01:59:28;;;;;;;10.00;6.78;;;20.40;99.60;;;;;;5069885;28;20028;-48
2021/09/10 02:01:54;;;;;;;8.63;7.10;;;20.50;99.60;;;;;;5069812;28;20592;-49
2021/09/10 02:04:19;;;;;;;7.63;6.93;;;20.40;99.80;;;;;;5069875;28;20081;-48
2021/09/10 02:06:45;;;;;;;11.35;7.53;;;20.40;99.70;;;;;;5069973;28;20025;-48
2021/09/10 02:09:11;;;;;;;8.70;6.65;;;20.50;99.60;;;;;;5069751;28;20481;-46
2021/09/10 02:11:37;;;;;;;9.27;7.20;;;20.50;99.50;;;;;;5052127;28;20085;-48
2021/09/10 02:14:03;;;;;;;7.97;7.07;;;20.50;99.60;;;;;;5051925;28;20551;-47
2021/09/10 02:16:29;;;;;;;10.63;6.93;;;20.50;99.60;;;;;;5069855;28;20504;-47
2021/09/10 02:18:55;;;;;;;9.00;7.30;;;20.50;99.70;;;;;;5069495;28;20028;-48
2021/09/10 02:21:20;;;;;;;14.05;7.43;;;20.50;99.70;;;;;;5051772;28;20060;-49
2021/09/10 02:23:46;;;;;;;8.90;6.88;;;20.40;99.70;;;;;;5069833;28;20052;-49
2021/09/10 02:26:11;;;;;;;8.73;7.13;;;20.40;99.80;;;;;;5070763;28;20032;-49
2021/09/10 02:28:37;;;;;;;8.13;7.32;;;20.30;99.90;;;;;;5073635;28;20460;-45
2021/09/10 02:31:02;;;;;;;10.93;7.30;;;20.30;99.90;;;;;;5073723;28;20089;-47
2021/09/10 02:33:28;;;;;;;9.55;8.02;;;20.30;99.90;;;;;;5074255;28;20390;-47
2021/09/10 02:35:57;;;;;;;10.80;6.97;;;20.30;99.90;;;;;;5073300;28;20036;-47
2021/09/10 02:38:23;;;;;;;11.25;8.30;;;20.30;99.90;;;;;;5073279;28;20461;-49
2021/09/10 02:40:49;;;;;;;9.20;7.30;;;20.30;99.90;;;;;;5073490;28;20037;-47
2021/09/10 02:43:15;;;;;;;9.00;7.60;;;20.30;99.90;;;;;;5073383;28;20528;-48
2021/09/10 02:45:41;;;;;;;10.65;8.02;;;20.30;99.90;;;;;;5055379;28;20032;-46
2021/09/10 02:48:06;;;;;;;15.93;7.25;;;20.40;99.90;;;;;;5055222;28;20016;-49
2021/09/10 02:50:32;;;;;;;8.48;7.53;;;20.30;99.90;;;;;;5055216;28;20331;-47
2021/09/10 02:52:57;;;;;;;12.63;7.30;;;20.30;99.90;;;;;;5073098;28;20024;-48
2021/09/10 02:55:23;;;;;;;11.20;8.20;;;20.20;99.90;;;;;;5072983;28;20051;-46
2021/09/10 02:57:49;;;;;;;11.43;8.23;;;20.20;99.90;;;;;;5072864;28;20024;-47
2021/09/10 03:00:15;;;;;;;9.02;8.13;;;20.20;99.90;;;;;;5072764;28;20032;-48
2021/09/10 03:02:41;;;;;;;10.50;9.10;;;20.10;99.90;;;;;;5072863;28;20028;-47
2021/09/10 03:05:06;;;;;;;7.95;7.25;;;20.10;99.90;;;;;;5072830;28;20024;-47
2021/09/10 03:07:32;;;;;;;11.10;8.73;;;20.10;99.90;;;;;;5072652;28;20024;-47
2021/09/10 03:09:58;;;;;;;11.90;8.70;;;20.00;99.90;;;;;;5073030;28;20024;-48
2021/09/10 03:12:23;;;;;;;10.27;8.10;;;20.00;99.90;;;;;;5072710;28;20028;-47
2021/09/10 03:14:49;;;;;;;10.20;7.50;;;20.00;99.90;;;;;;5072716;28;20029;-48
2021/09/10 03:17:14;;;;;;;10.35;8.18;;;20.00;99.90;;;;;;5072363;28;20031;-49
2021/09/10 03:19:40;;;;;;;9.75;8.20;;;19.90;99.90;;;;;;5054418;28;20390;-46
2021/09/10 03:22:06;;;;;;;11.65;8.73;;;19.90;99.90;;;;;;5072536;28;20111;-47
2021/09/10 03:24:32;;;;;;;8.68;7.88;;;19.90;99.90;;;;;;5072439;28;20101;-49
2021/09/10 03:26:58;;;;;;;10.57;8.23;;;19.90;99.90;;;;;;5072526;28;20057;-51
2021/09/10 03:29:23;;;;;;;9.60;8.60;;;19.90;99.90;;;;;;5072130;28;20453;-51
2021/09/10 03:31:49;;;;;;;9.07;8.20;;;19.80;99.90;;;;;;5072269;28;20103;-46
2021/09/10 03:34:15;;;;;;;14.85;8.00;;;19.80;99.90;;;;;;5071753;28;20101;-47
2021/09/10 03:36:40;;;;;;;13.77;8.75;;;19.80;99.90;;;;;;5072271;28;20043;-47
2021/09/10 03:39:06;;;;;;;10.63;8.30;;;19.80;99.90;;;;;;5070893;28;20029;-46
2021/09/10 03:41:31;;;;;;;13.88;8.63;;;19.80;99.90;;;;;;5071978;28;20478;-48
2021/09/10 03:43:57;;;;;;;9.80;8.77;;;19.70;99.90;;;;;;5054234;28;20025;-47
2021/09/10 03:46:23;;;;;;;10.45;8.45;;;19.70;99.90;;;;;;5071938;28;20024;-45
2021/09/10 03:48:50;;;;;;;10.18;8.52;;;19.70;99.90;;;;;;5071937;28;20028;-47
2021/09/10 03:51:16;;;;;;;9.73;8.80;;;19.70;99.90;;;;;;5071835;28;20031;-52
2021/09/10 03:53:42;;;;;;;10.13;8.25;;;19.70;99.90;;;;;;5071740;28;20111;-46
2021/09/10 03:56:07;;;;;;;9.45;8.55;;;19.70;99.90;;;;;;5072186;28;20571;-46
2021/09/10 03:58:34;;;;;;;12.02;8.38;;;19.80;99.90;;;;;;5071523;28;20052;-49
2021/09/10 04:00:59;;;;;;;23.13;9.43;;;19.80;99.90;;;;;;5071627;28;20032;-46
2021/09/10 04:03:25;;;;;;;10.32;8.63;;;19.80;99.90;;;;;;5071976;28;20508;-49
2021/09/10 04:05:50;;;;;;;8.65;7.70;;;19.80;99.90;;;;;;5071634;28;20063;-49
2021/09/10 04:08:16;;;;;;;9.27;7.95;;;19.90;99.90;;;;;;5071456;28;20024;-49
2021/09/10 04:10:42;;;;;;;9.27;8.32;;;19.80;99.90;;;;;;5071782;28;20086;-48
2021/09/10 04:13:08;;;;;;;9.93;8.93;;;19.80;99.90;;;;;;5073444;28;20488;-51
2021/09/10 04:15:34;;;;;;;10.15;9.18;;;19.80;99.90;;;;;;5072909;28;20021;-48
2021/09/10 04:17:59;;;;;;;13.15;8.45;;;19.80;99.90;;;;;;5071141;28;20452;-45
2021/09/10 04:20:25;;;;;;;9.95;8.02;;;19.80;99.90;;;;;;5071258;28;20032;-45
2021/09/10 04:22:51;;;;;;;9.55;8.48;;;19.80;99.90;;;;;;5071235;28;20029;-50
2021/09/10 04:25:16;;;;;;;11.35;8.75;;;19.80;99.90;;;;;;5071267;28;20048;-47
2021/09/10 04:27:42;;;;;;;13.02;8.77;;;19.80;99.90;;;;;;5070997;28;20371;-45
2021/09/10 04:30:08;;;;;;;9.90;8.05;;;19.80;99.90;;;;;;5070982;28;20109;-47
2021/09/10 04:32:35;;;;;;;11.98;9.10;;;19.80;99.90;;;;;;5071130;28;20032;-48
2021/09/10 04:35:02;;;;;;;11.30;8.65;;;19.80;99.90;;;;;;5070402;28;20037;-48
2021/09/10 04:37:27;;;;;;;11.45;7.93;;;19.80;99.90;;;;;;5070840;28;20028;-49
2021/09/10 04:39:53;;;;;;;11.00;8.73;;;19.80;99.90;;;;;;5071174;28;20032;-47
2021/09/10 04:42:18;;;;;;;9.98;8.13;;;19.80;99.90;;;;;;5070870;28;20027;-49
2021/09/10 04:44:44;;;;;;;10.35;8.18;;;19.80;99.90;;;;;;5071481;28;20032;-48
2021/09/10 04:47:09;;;;;;;9.02;8.13;;;19.80;99.90;;;;;;5071057;28;20435;-46
2021/09/10 04:49:35;;;;;;;10.00;8.98;;;19.80;99.90;;;;;;5070679;28;20236;-47
2021/09/10 04:52:01;;;;;;;9.13;8.23;;;19.70;99.90;;;;;;5071024;28;20539;-45
2021/09/10 04:54:27;;;;;;;10.50;8.27;;;19.80;99.90;;;;;;5070720;28;20592;-49
2021/09/10 04:56:53;;;;;;;12.13;8.68;;;19.70;99.90;;;;;;5070922;28;20044;-47
2021/09/10 04:59:19;;;;;;;12.63;9.07;;;19.80;99.90;;;;;;5070419;28;20059;-48
2021/09/10 05:01:44;;;;;;;10.05;8.77;;;19.80;99.90;;;;;;5070384;28;20059;-49
2021/09/10 05:04:10;;;;;;;9.85;8.88;;;19.70;99.90;;;;;;5070711;28;20016;-47
2021/09/10 05:06:36;;;;;;;9.40;8.50;;;19.70;99.90;;;;;;5071033;28;20374;-48
2021/09/10 05:09:02;;;;;;;9.40;8.40;;;19.60;99.90;;;;;;5052442;28;20027;-46
2021/09/10 05:11:28;;;;;;;9.93;8.95;;;19.50;99.90;;;;;;5070515;28;20017;-45
2021/09/10 05:13:53;;;;;;;9.88;8.50;;;19.50;99.90;;;;;;5070311;28;20040;-46
2021/09/10 05:16:19;;;;;;;11.70;8.55;;;19.50;99.90;;;;;;5070386;28;20021;-50
2021/09/10 05:18:44;;;;;;;10.95;8.05;;;19.50;99.90;;;;;;5070257;28;20020;-45
2021/09/10 05:21:10;;;;;;;10.15;8.75;;;19.60;99.90;;;;;;5052297;28;20035;-44
2021/09/10 05:23:36;;;;;;;11.07;8.98;;;19.60;99.90;;;;;;5070970;28;20035;-45
2021/09/10 05:26:01;;;;;;;9.10;8.20;;;19.60;99.90;;;;;;5070624;28;20028;-44
2021/09/10 05:28:27;;;;;;;12.77;9.60;;;19.60;99.90;;;;;;5070135;28;20409;-46
2021/09/10 05:30:52;;;;;;;13.90;9.30;;;19.60;99.90;;;;;;5070515;28;20028;-46
2021/09/10 05:33:18;;;;;;;12.43;9.32;;;19.50;99.90;;;;;;5052872;28;20390;-45
2021/09/10 05:35:43;;;;;;;11.32;10.05;;;19.60;99.90;;;;;;5069908;28;20040;-47
2021/09/10 05:38:09;;;;;;;9.73;8.50;;;19.70;99.90;;;;;;5070248;28;20025;-50
2021/09/10 05:40:35;;;;;;;13.68;10.27;;;19.70;99.90;;;;;;5070200;28;20167;-47
2021/09/10 05:43:00;;;;;;;15.88;9.18;;;19.70;99.90;;;;;;5052180;28;20020;-48
2021/09/10 05:45:26;;;;;;;11.00;8.88;;;19.70;99.90;;;;;;5070310;28;20029;-47
2021/09/10 05:47:51;;;;;;;11.05;9.13;;;19.80;99.90;;;;;;5070127;28;20025;-47
2021/09/10 05:50:17;;;;;;;12.38;8.80;;;19.80;99.90;;;;;;5070383;28;20108;-47
2021/09/10 05:52:43;;;;;;;11.48;8.32;;;19.80;99.90;;;;;;5070431;28;20614;-45
2021/09/10 05:55:09;;;;;;;11.02;8.95;;;19.80;99.90;;;;;;5070405;28;20025;-44
2021/09/10 05:57:35;;;;;;;14.95;9.55;;;19.80;99.90;;;;;;5069924;28;20039;-46
2021/09/10 06:00:03;;;;;;;14.82;10.05;;;19.80;99.90;;;;;;5070022;28;20111;-47
2021/09/10 06:02:28;;;;;;;13.85;9.52;;;19.80;99.90;;;;;;5073481;28;20016;-48
2021/09/10 06:04:54;;;;;;;13.75;9.60;;;19.80;99.90;;;;;;5074201;28;20485;-47
2021/09/10 06:07:19;;;;;;;10.27;9.18;;;19.70;99.90;;;;;;5074106;28;20108;-45
2021/09/10 06:09:45;;;;;;;12.85;9.98;;;19.70;99.90;;;;;;5056320;28;20486;-45
2021/09/10 06:12:10;;;;;;;13.27;10.95;;;19.70;99.90;;;;;;5074076;28;20472;-48
2021/09/10 06:14:36;;;;;;;10.18;9.15;;;19.70;99.90;;;;;;5056387;28;20087;-45
2021/09/10 06:17:01;;;;;;;11.00;9.85;;;19.80;99.90;;;;;;5074110;28;20032;-47
2021/09/10 06:19:28;;;;;;;18.25;9.73;;;19.80;99.90;;;;;;5073948;28;20021;-46
2021/09/10 06:21:54;;;;;;;11.85;10.60;;;19.90;99.90;;;;;;5073716;28;20032;-46
2021/09/10 06:24:19;;;;;;;10.82;9.48;;;20.10;99.90;;;;;;5073622;28;20474;-45
2021/09/10 06:26:45;;;;;;;10.88;9.77;;;20.10;99.90;;;;;;5073496;28;20099;-45
2021/09/10 06:29:11;;;;;;;13.60;10.10;;;20.20;99.90;;;;;;5073424;28;20032;-46
2021/09/10 06:31:39;;;;;;;15.80;10.10;;;20.20;99.90;;;;;;5073643;28;20017;-45
2021/09/10 06:34:05;;;;;;;13.00;9.27;;;20.10;99.90;;;;;;5073427;28;20021;-46
2021/09/10 06:36:30;;;;;;;11.63;10.15;;;20.10;99.90;;;;;;5073498;28;20028;-48
2021/09/10 06:38:56;;;;;;;11.48;9.02;;;20.20;99.90;;;;;;5073286;28;20024;-47
2021/09/10 06:41:21;;;;;;;12.60;9.32;;;20.20;99.90;;;;;;5055290;28;20028;-45
2021/09/10 06:43:47;;;;;;;11.70;9.70;;;20.30;99.90;;;;;;5073451;28;20028;-46
2021/09/10 06:46:12;;;;;;;12.32;9.55;;;20.30;99.90;;;;;;5073440;28;20028;-47
2021/09/10 06:48:38;;;;;;;11.80;10.30;;;20.30;99.90;;;;;;5073211;28;20497;-46
2021/09/10 06:51:03;;;;;;;15.82;9.50;;;20.30;99.90;;;;;;5073095;28;20029;-48
2021/09/10 06:53:29;;;;;;;14.32;9.65;;;20.40;99.90;;;;;;5073148;28;20033;-48
2021/09/10 06:55:54;;;;;;;14.18;9.65;;;20.40;99.90;;;;;;5073254;28;20025;-48
2021/09/10 06:58:20;;;;;;;12.38;9.07;;;20.40;99.90;;;;;;5072933;28;20028;-46
2021/09/10 07:00:45;;;;;;;16.48;9.95;;;20.50;99.90;;;;;;5072928;28;20421;-47
2021/09/10 07:03:11;;;;;;;12.85;9.00;;;20.60;99.90;;;;;;5073068;28;20021;-48
2021/09/10 07:05:37;;;;;;;13.73;9.07;;;20.60;99.90;;;;;;5072982;28;20496;-47
2021/09/10 07:08:03;;;;;;;9.60;8.55;;;20.60;99.90;;;;;;5072734;28;20017;-46
2021/09/10 07:10:29;;;;;;;11.07;9.07;;;20.70;99.90;;;;;;5072792;28;20067;-46
2021/09/10 07:12:55;;;;;;;10.40;9.40;;;20.80;99.90;;;;;;5071739;28;20013;-47
2021/09/10 07:15:20;;;;;;;10.02;9.02;;;20.80;99.90;;;;;;5072816;28;20029;-46
2021/09/10 07:17:46;;;;;;;12.27;9.15;;;20.90;99.90;;;;;;5072587;28;20031;-45
2021/09/10 07:20:12;;;;;;;13.60;9.63;;;21.00;99.90;;;;;;5072742;28;20024;-48
2021/09/10 07:22:37;;;;;;;9.98;8.98;;;21.00;99.90;;;;;;5072653;28;20059;-48
2021/09/10 07:25:03;;;;;;;10.00;9.10;;;21.10;99.90;;;;;;5055714;28;20021;-50
2021/09/10 07:27:29;;;;;;;11.75;9.38;;;21.10;99.90;;;;;;5072702;28;20375;-50
2021/09/10 07:29:54;;;;;;;9.05;8.13;;;21.20;99.90;;;;;;5072589;28;20059;-49
2021/09/10 07:32:20;;;;;;;10.35;8.77;;;21.30;99.90;;;;;;5054672;28;20017;-48
2021/09/10 07:34:45;;;;;;;11.65;9.10;;;21.50;99.90;;;;;;5072475;28;20032;-45
2021/09/10 07:37:11;;;;;;;25.67;9.38;;;21.60;99.90;;;;;;5054053;28;20075;-45
2021/09/10 07:39:36;;;;;;;11.15;8.25;;;21.80;99.90;;;;;;5072269;28;20029;-46
2021/09/10 07:42:02;;;;;;;8.23;7.43;;;22.10;99.90;;;;;;5054328;28;20043;-46
2021/09/10 07:44:28;;;;;;;9.00;7.95;;;22.40;99.90;;;;;;5072311;28;20486;-47
2021/09/10 07:46:54;;;;;;;14.55;8.15;;;22.90;99.90;;;;;;5054273;28;20039;-49
2021/09/10 07:49:21;;;;;;;9.15;5.63;;;23.30;99.20;;;;;;5071936;28;20046;-49
2021/09/10 07:51:47;;;;;;;7.68;6.05;;;23.90;97.90;;;;;;5072440;28;20038;-48
2021/09/10 07:54:13;;;;;;;9.57;6.75;;;24.20;97.50;;;;;;5071921;28;20048;-49
2021/09/10 07:56:39;;;;;;;9.23;6.25;;;24.30;96.80;;;;;;5071919;28;20074;-50
2021/09/10 07:59:04;;;;;;;11.88;5.90;;;24.30;96.70;;;;;;5071752;28;20047;-45
2021/09/10 08:01:30;;;;;;;6.70;5.85;;;24.20;97.00;;;;;;5053792;28;20037;-45
2021/09/10 08:03:55;;;;;;;10.23;6.35;;;24.10;97.60;;;;;;5072009;28;20040;-49
2021/09/10 08:06:21;;;;;;;11.10;5.60;;;23.90;97.50;;;;;;5072024;28;20020;-48
2021/09/10 08:08:46;;;;;;;11.20;6.20;;;23.80;97.40;;;;;;5071911;28;20017;-48
2021/09/10 08:11:12;;;;;;;8.48;5.85;;;23.70;97.10;;;;;;5071592;28;20111;-45
2021/09/10 08:13:38;;;;;;;6.57;5.97;;;23.40;97.50;;;;;;5053903;28;20477;-46
2021/09/10 08:16:04;;;;;;;10.15;7.32;;;23.30;97.70;;;;;;5071671;28;20056;-48
2021/09/10 08:18:29;;;;;;;11.02;7.13;;;23.10;98.30;;;;;;5071405;28;20512;-47
2021/09/10 08:20:56;;;;;;;8.80;6.63;;;22.90;98.70;;;;;;5071495;28;20123;-45
2021/09/10 08:23:22;;;;;;;8.82;7.55;;;22.70;99.10;;;;;;5071469;28;20029;-50
2021/09/10 08:25:48;;;;;;;10.18;7.50;;;22.60;99.40;;;;;;5071238;28;20024;-46
2021/09/10 08:28:13;;;;;;;11.68;7.40;;;22.50;99.40;;;;;;5071193;28;20024;-47
2021/09/10 08:30:39;;;;;;;8.13;7.32;;;22.40;99.50;;;;;;5053275;28;20020;-48
2021/09/10 08:33:12;;;;;;;8.93;7.38;;;22.40;99.70;;;;;;5071432;28;20028;-46
2021/09/10 08:35:37;;;;;;;8.65;7.30;;;22.40;99.80;;;;;;5070782;28;20021;-45
2021/09/10 08:38:03;;;;;;;10.30;7.25;;;22.60;99.60;;;;;;5070916;28;20024;-46
2021/09/10 08:40:30;;;;;;;9.80;6.07;;;23.00;99.60;;;;;;5053389;28;20473;-47
2021/09/10 08:42:55;;;;;;;10.27;6.38;;;23.60;98.60;;;;;;5071252;28;20486;-47
2021/09/10 08:45:26;;;;;;;9.88;6.88;;;24.00;97.40;;;;;;5053457;28;20036;-45
2021/09/10 08:47:52;;;;;;;11.18;6.10;;;24.40;96.40;;;;;;5071002;28;20027;-51
2021/09/10 08:50:17;;;;;;;6.75;5.95;;;25.10;95.60;;;;;;5071218;28;20029;-47
2021/09/10 08:52:43;;;;;;;7.45;5.68;;;26.30;94.50;;;;;;5071104;28;20482;-46
2021/09/10 08:55:11;;;;;;;6.53;4.80;;;27.30;93.40;;;;;;5071155;28;20028;-47
2021/09/10 08:57:51;;;;;;;7.40;4.57;;;28.30;91.10;;;;;;5070919;28;20044;-48
2021/09/10 09:00:32;;;;;;;5.47;4.32;;;28.90;89.20;;;;;;5070850;28;20063;-50
2021/09/10 09:03:06;;;;;;;4.60;4.07;;;29.50;88.20;;;;;;5071277;28;20028;-48
2021/09/10 09:05:32;;;;;;;6.50;4.60;;;30.10;87.20;;;;;;5070969;28;20054;-50
2021/09/10 09:08:13;;;;;;;5.35;4.15;;;30.60;84.20;;;;;;5070580;28;20095;-49
2021/09/10 09:10:53;;;;;;;5.72;4.15;;;30.80;83.90;;;;;;5070775;28;20029;-46
2021/09/10 09:13:20;;;;;;;5.95;4.20;;;31.40;83.00;;;;;;5052728;28;20027;-46
2021/09/10 09:15:46;;;;;;;7.18;4.18;;;31.70;81.60;;;;;;5070542;28;20024;-48
2021/09/10 09:18:12;;;;;;;4.53;4.13;;;31.50;81.20;;;;;;5070232;28;20490;-47
2021/09/10 09:20:38;;;;;;;7.10;4.57;;;31.20;81.00;;;;;;5070451;28;20066;-47
2021/09/10 09:23:12;;;;;;;4.72;4.10;;;30.60;82.30;;;;;;5070364;28;20429;-49
2021/09/10 09:25:50;;;;;;;5.15;4.25;;;30.40;83.70;;;;;;5070304;28;20021;-49
2021/09/10 09:28:20;;;;;;;7.03;4.40;;;30.20;84.50;;;;;;5052149;28;20036;-49
2021/09/10 09:30:47;;;;;;;5.13;4.63;;;29.80;84.40;;;;;;5070273;28;20027;-47
2021/09/10 09:33:14;;;;;;;7.97;4.53;;;29.20;84.90;;;;;;5070841;28;20027;-47
2021/09/10 09:35:41;;;;;;;6.10;4.70;;;28.60;86.60;;;;;;5069457;28;20031;-51
2021/09/10 09:38:19;;;;;;;5.60;4.35;;;28.20;88.40;;;;;;5070113;28;20416;-45
2021/09/10 09:40:50;;;;;;;6.15;4.55;;;27.20;88.90;;;;;;5069946;28;20020;-46
2021/09/10 09:43:18;;;;;;;7.95;5.00;;;26.50;90.60;;;;;;5070388;28;20071;-48
2021/09/10 09:45:46;;;;;;;6.18;4.55;;;25.80;91.60;;;;;;5070440;28;20411;-50
2021/09/10 09:48:13;;;;;;;6.22;4.65;;;25.30;92.40;;;;;;5069944;28;20052;-46
2021/09/10 09:50:40;;;;;;;8.90;4.35;;;25.10;92.50;;;;;;5070074;28;20021;-45
2021/09/10 09:53:06;;;;;;;5.25;4.50;;;24.90;92.60;;;;;;5070043;28;20068;-47
2021/09/10 09:55:33;;;;;;;5.35;4.30;;;24.80;92.60;;;;;;5069962;28;20024;-49
2021/09/10 09:58:03;;;;;;;6.57;4.68;;;24.60;92.90;;;;;;5069856;28;20020;-48
2021/09/10 10:00:29;;;;;;;4.68;4.13;;;24.60;92.80;;;;;;5070099;28;20111;-45
2021/09/10 10:02:55;;;;;;;5.10;4.60;;;24.40;92.80;;;;;;5070047;28;20154;-47
2021/09/10 10:05:21;;;;;;;62.00;44.08;;;24.40;93.30;;;;;;5069696;28;20477;-45
2021/09/10 10:07:58;;;;;;;6.25;5.13;;;24.30;93.60;;;;;;5069648;28;20050;-46
2021/09/10 10:10:26;;;;;;;4.60;4.07;;;24.40;93.60;;;;;;5070044;28;20024;-45
2021/09/10 10:12:54;;;;;;;4.78;4.32;;;24.30;93.50;;;;;;5070032;28;20028;-49
2021/09/10 10:15:29;;;;;;;5.95;4.32;;;24.20;93.80;;;;;;5069621;28;20435;-46
2021/09/10 10:17:56;;;;;;;6.43;4.90;;;24.10;94.10;;;;;;5051853;28;20576;-45
2021/09/10 10:20:44;;;;;;;5.10;4.70;;;24.00;94.50;;;;;;5069727;28;20056;-50
2021/09/10 10:23:44;;;;;;;4.32;4.00;;;24.00;94.70;;;;;;5051756;28;20051;-45
2021/09/10 10:26:15;;;;;;;6.68;3.92;;;23.90;94.40;;;;;;5069843;28;20024;-45
2021/09/10 10:28:53;;;;;;;5.13;3.90;;;23.80;94.70;;;;;;5069196;28;20032;-44
2021/09/10 10:31:57;;;;;;;3.85;3.55;;;23.70;94.90;;;;;;5070023;28;20032;-45
2021/09/10 10:34:23;;;;;;;4.25;3.28;;;23.70;95.10;;;;;;5070096;28;20103;-50
2021/09/10 10:36:49;;;;;;;3.47;3.25;;;23.60;95.40;;;;;;5069625;28;20124;-50
2021/09/10 10:39:20;;;;;;;4.45;3.33;;;23.60;95.50;;;;;;5069253;28;20036;-48
2021/09/10 10:41:56;;;;;;;8.15;2.70;;;23.60;95.20;;;;;;5069323;28;20024;-49
2021/09/10 10:44:34;;;;;;;2.80;2.60;;;23.60;95.40;;;;;;5069780;28;20027;-48
2021/09/10 10:47:16;;;;;;;3.17;2.90;;;23.60;95.70;;;;;;5070357;28;20036;-48
2021/09/10 10:49:47;;;;;;;2.90;2.70;;;23.70;95.40;;;;;;5073099;28;20021;-46
2021/09/10 10:52:28;;;;;;;3.63;3.33;;;23.70;95.60;;;;;;5073156;28;20029;-48
2021/09/10 10:55:12;;;;;;;3.97;3.58;;;23.80;95.30;;;;;;5073779;28;20029;-44
2021/09/10 10:57:38;;;;;;;4.35;3.95;;;23.80;95.60;;;;;;5055360;28;20027;-44
2021/09/10 11:00:32;;;;;;;4.68;4.32;;;23.80;95.40;;;;;;5055542;28;20025;-45
2021/09/10 11:03:13;;;;;;;5.57;4.05;;;23.80;95.40;;;;;;5073367;28;20367;-45
2021/09/10 11:05:47;;;;;;;8.10;4.28;;;23.80;95.40;;;;;;5055106;28;20025;-48
2021/09/10 11:08:34;;;;;;;4.63;4.22;;;23.80;95.50;;;;;;5070705;28;20028;-46
2021/09/10 11:11:01;;;;;;;8.43;4.00;;;23.90;95.40;;;;;;5071237;28;20044;-50
2021/09/10 11:13:28;;;;;;;5.80;3.88;;;23.90;95.40;;;;;;5072289;28;20736;-46
2021/09/10 11:15:53;;;;;;;3.42;3.13;;;24.00;95.40;;;;;;5072783;28;20394;-47
2021/09/10 11:18:19;;;;;;;5.28;3.92;;;24.00;95.10;;;;;;5072225;28;20020;-47
2021/09/10 11:20:48;;;;;;;4.90;3.97;;;24.00;95.30;;;;;;5072504;28;20035;-46
2021/09/10 11:23:24;;;;;;;5.15;3.67;;;24.10;94.90;;;;;;5072960;28;20486;-50
2021/09/10 11:25:54;;;;;;;3.60;3.30;;;24.20;94.50;;;;;;5072417;28;20082;-46
2021/09/10 11:28:21;;;;;;;3.50;3.30;;;24.30;94.30;;;;;;5054272;28;20396;-48
2021/09/10 11:30:50;;;;;;;3.60;3.30;;;24.20;94.30;;;;;;5054910;28;20032;-48
2021/09/10 11:33:16;;;;;;;6.45;3.90;;;24.30;94.20;;;;;;5072805;28;20044;-45
2021/09/10 11:35:42;;;;;;;4.30;3.45;;;24.30;94.50;;;;;;5072126;28;20021;-47
2021/09/10 11:38:09;;;;;;;2.80;2.60;;;24.40;94.70;;;;;;5072306;28;20028;-46
2021/09/10 11:40:41;;;;;;;3.95;3.10;;;24.50;94.30;;;;;;5072311;28;20442;-46
2021/09/10 11:43:15;;;;;;;3.15;2.95;;;24.60;94.20;;;;;;5072472;28;20024;-48
2021/09/10 11:45:45;;;;;;;7.03;3.05;;;24.70;94.50;;;;;;5072293;28;20025;-47
2021/09/10 11:48:17;;;;;;;2.67;2.50;;;24.80;94.10;;;;;;5072046;28;20119;-47
2021/09/10 11:50:49;;;;;;;3.70;2.70;;;24.80;94.20;;;;;;5053874;28;20024;-50
2021/09/10 11:53:20;;;;;;;2.28;2.10;;;24.90;94.40;;;;;;5072187;28;20025;-47
2021/09/10 11:55:57;;;;;;;2.63;2.20;;;25.00;94.10;;;;;;5072563;28;20031;-45
2021/09/10 11:58:40;;;;;;;2.75;1.92;;;24.90;93.90;;;;;;5071512;28;20104;-49
2021/09/10 12:01:11;;;;;;;2.15;2.05;;;24.80;94.10;;;;;;5071696;28;20654;-47
2021/09/10 12:03:55;;;;;;;5.07;2.65;;;24.70;94.70;;;;;;5071981;28;20031;-47
2021/09/10 12:06:31;;;;;;;3.05;2.85;;;24.70;94.60;;;;;;5071947;28;20100;-47
2021/09/10 12:09:14;;;;;;;3.30;3.00;;;24.70;95.10;;;;;;5071596;28;20032;-46
2021/09/10 12:11:56;;;;;;;2.38;2.25;;;24.70;95.10;;;;;;5071662;28;20020;-46
2021/09/10 12:14:34;;;;;;;3.05;2.55;;;24.70;95.00;;;;;;5071714;28;20017;-49
2021/09/10 12:17:10;;;;;;;2.47;2.28;;;24.70;94.80;;;;;;5071444;28;20032;-50
2021/09/10 12:20:12;;;;;;;2.75;2.63;;;24.60;94.80;;;;;;5052831;28;20501;-47
2021/09/10 12:22:48;;;;;;;3.55;2.50;;;24.60;95.60;;;;;;5064201;28;20102;-49
2021/09/10 12:25:35;;;;;;;3.05;2.40;;;24.50;95.80;;;;;;5071393;28;20099;-50
2021/09/10 12:28:04;;;;;;;2.65;2.45;;;24.40;95.90;;;;;;5071013;28;20154;-51
2021/09/10 12:30:35;;;;;;;3.38;3.08;;;24.20;96.10;;;;;;5071087;28;20025;-49
2021/09/10 12:33:00;;;;;;;3.55;3.25;;;24.20;96.40;;;;;;5071155;28;20036;-50
2021/09/10 12:35:28;;;;;;;4.28;3.45;;;24.10;96.50;;;;;;5070836;28;20504;-50
2021/09/10 12:37:58;;;;;;;3.35;3.00;;;24.10;96.20;;;;;;5071236;28;20024;-51
2021/09/10 12:40:29;;;;;;;2.97;2.50;;;24.10;96.20;;;;;;5071133;28;20025;-49
2021/09/10 12:42:56;;;;;;;5.15;3.33;;;24.10;95.40;;;;;;5053228;28;20048;-48
2021/09/10 12:45:22;;;;;;;8.88;3.70;;;24.30;95.90;;;;;;5071212;28;20047;-47
2021/09/10 12:47:47;;;;;;;4.53;4.13;;;24.30;95.60;;;;;;5070608;28;20021;-52